Time;durP1;ratioP1;P1;durP2;ratioP2;P2;SDS_P1;SDS_P2;PMS_P1;PMS_P2;Temp;Humidity;BMP_temperature;BMP_pressure;BME280_temperature;BME280_humidity;BME280_pressure;Samples;Min_cycle;Max_cycle;Signal;HPM_P1;HPM_P2
2021/05/11 00:00:34;;;;;;;3.80;2.85;;;12.20;48.10;;;;;;6247225;22;20015;-91
2021/05/11 00:03:00;;;;;;;2.88;2.58;;;12.20;48.80;;;;;;6256590;22;20090;-92
2021/05/11 00:05:30;;;;;;;3.53;2.63;;;12.20;48.30;;;;;;6267783;23;20046;-90
2021/05/11 00:07:57;;;;;;;5.07;2.72;;;12.20;48.30;;;;;;6266088;22;20001;-89
2021/05/11 00:10:24;;;;;;;4.20;2.60;;;12.30;48.20;;;;;;6270267;22;20004;-90
2021/05/11 00:12:50;;;;;;;3.92;2.42;;;12.30;48.20;;;;;;6268606;22;20039;-92
2021/05/11 00:15:17;;;;;;;2.72;2.30;;;12.30;47.80;;;;;;6271265;22;19988;-91
2021/05/11 00:17:44;;;;;;;3.05;2.67;;;12.40;47.60;;;;;;6264132;23;20008;-92
2021/05/11 00:20:11;;;;;;;5.80;2.38;;;12.40;47.20;;;;;;6251068;22;20023;-91
2021/05/11 00:22:37;;;;;;;3.50;2.45;;;12.50;47.00;;;;;;6249740;22;20000;-92
2021/05/11 00:25:03;;;;;;;3.95;2.65;;;12.60;46.70;;;;;;6247338;22;20083;-92
2021/05/11 00:27:29;;;;;;;3.25;2.58;;;12.60;46.40;;;;;;6247382;22;20008;-92
2021/05/11 00:29:54;;;;;;;4.20;2.70;;;12.60;45.90;;;;;;6247192;22;20069;-92
2021/05/11 00:32:20;;;;;;;3.30;2.20;;;12.70;45.90;;;;;;6247355;22;20335;-91
2021/05/11 00:34:46;;;;;;;3.30;2.50;;;12.70;45.70;;;;;;6247323;22;20104;-92
2021/05/11 00:37:11;;;;;;;3.58;2.53;;;12.80;45.60;;;;;;6248590;22;20470;-91
2021/05/11 00:39:37;;;;;;;3.42;2.38;;;12.80;45.70;;;;;;6247440;23;20079;-91
2021/05/11 00:42:03;;;;;;;3.53;2.97;;;12.80;46.10;;;;;;6246957;22;20083;-91
2021/05/11 00:44:29;;;;;;;3.17;2.65;;;12.80;46.40;;;;;;6246718;22;20004;-91
2021/05/11 00:49:22;;;;;;;4.50;2.60;;;12.80;46.80;;;;;;6248492;22;20000;-91
2021/05/11 00:51:49;;;;;;;2.92;2.50;;;12.80;47.00;;;;;;6246317;22;20008;-92
2021/05/11 00:54:15;;;;;;;5.28;2.83;;;12.70;46.70;;;;;;6247431;23;20007;-92
2021/05/11 00:56:41;;;;;;;7.15;2.83;;;12.70;46.90;;;;;;6246853;22;20005;-91
2021/05/11 00:59:12;;;;;;;5.22;2.70;;;12.60;46.80;;;;;;6247394;22;20090;-92
2021/05/11 01:01:38;;;;;;;4.43;2.88;;;12.60;46.50;;;;;;6246888;23;20087;-91
2021/05/11 01:04:03;;;;;;;3.00;2.55;;;12.60;46.50;;;;;;6246450;22;20024;-92
2021/05/11 01:06:29;;;;;;;2.70;2.35;;;12.60;46.50;;;;;;6247298;22;20059;-91
2021/05/11 01:08:55;;;;;;;3.13;2.55;;;12.60;47.00;;;;;;6246843;22;20415;-92
2021/05/11 01:11:20;;;;;;;3.83;2.80;;;12.50;46.90;;;;;;6246778;23;20054;-90
2021/05/11 01:13:46;;;;;;;3.28;2.65;;;12.50;47.10;;;;;;6246353;22;20388;-92
2021/05/11 01:16:12;;;;;;;5.38;2.85;;;12.50;47.40;;;;;;6246663;22;20004;-92
2021/05/11 01:18:38;;;;;;;2.85;2.53;;;12.40;47.60;;;;;;6246520;22;20047;-91
2021/05/11 01:21:24;;;;;;;4.13;2.50;;;12.40;47.90;;;;;;6246522;23;20043;-92
2021/05/11 01:24:05;;;;;;;3.35;2.80;;;12.40;48.00;;;;;;6247912;22;20035;-91
2021/05/11 01:26:57;;;;;;;3.78;2.85;;;12.40;48.10;;;;;;6246431;23;20004;-91
2021/05/11 02:11:00;;;;;;;3.78;2.42;;;12.40;47.40;;;;;;6258800;23;19906;-92
2021/05/11 02:24:21;;;;;;;3.58;2.15;;;12.60;47.60;;;;;;6249827;23;20022;-91
2021/05/11 02:26:46;;;;;;;4.25;2.50;;;12.60;48.00;;;;;;6247961;22;20083;-92
2021/05/11 02:29:12;;;;;;;5.80;3.00;;;12.50;48.10;;;;;;6248451;23;20000;-92
2021/05/11 02:31:38;;;;;;;2.63;2.42;;;12.50;48.30;;;;;;6249793;22;19996;-92
2021/05/11 02:34:04;;;;;;;3.55;2.35;;;12.50;48.60;;;;;;6249411;23;20404;-91
2021/05/11 02:36:30;;;;;;;3.55;2.70;;;12.50;48.70;;;;;;6248757;22;20000;-92
2021/05/11 02:38:55;;;;;;;5.30;2.75;;;12.40;48.80;;;;;;6248181;22;20004;-93
2021/05/11 02:41:21;;;;;;;4.78;2.88;;;12.40;48.80;;;;;;6248291;22;20054;-92
2021/05/11 02:43:47;;;;;;;3.90;3.10;;;12.40;48.90;;;;;;6248204;22;20031;-91
2021/05/11 02:46:12;;;;;;;6.05;2.88;;;12.40;48.90;;;;;;6248114;22;20095;-91
2021/05/11 02:48:38;;;;;;;3.80;3.00;;;12.30;48.90;;;;;;6248174;22;20003;-91
2021/05/11 02:51:04;;;;;;;3.75;2.70;;;12.30;49.10;;;;;;6248044;22;20399;-92
2021/05/11 02:53:30;;;;;;;4.88;3.15;;;12.30;49.20;;;;;;6247956;22;20018;-91
2021/05/11 02:55:55;;;;;;;4.03;2.72;;;12.30;49.30;;;;;;6248154;22;20005;-91
2021/05/11 02:58:23;;;;;;;2.85;2.55;;;12.20;49.40;;;;;;6247958;22;20023;-93
2021/05/11 03:00:49;;;;;;;3.10;2.70;;;12.20;49.30;;;;;;6247891;22;20007;-91
2021/05/11 03:03:14;;;;;;;2.55;2.33;;;12.20;49.20;;;;;;6259838;22;20020;-91
2021/05/11 03:05:40;;;;;;;3.78;2.63;;;12.20;48.90;;;;;;6258773;23;20027;-92
2021/05/11 03:08:06;;;;;;;5.40;2.85;;;12.20;48.90;;;;;;6257180;22;20015;-91
2021/05/11 03:10:31;;;;;;;3.92;2.80;;;12.30;49.20;;;;;;6251959;22;20023;-91
2021/05/11 03:12:57;;;;;;;4.25;2.80;;;12.30;49.80;;;;;;6247303;22;20007;-91
2021/05/11 03:15:23;;;;;;;3.10;2.60;;;12.30;49.10;;;;;;6247981;22;20000;-93
2021/05/11 03:17:48;;;;;;;3.35;2.30;;;12.30;49.30;;;;;;6247978;22;20038;-92
2021/05/11 03:20:15;;;;;;;3.65;3.05;;;12.30;49.40;;;;;;6247628;22;20031;-91
2021/05/11 03:22:40;;;;;;;3.78;2.80;;;12.30;49.20;;;;;;6248309;23;20003;-93
2021/05/11 03:25:07;;;;;;;3.20;2.60;;;12.30;49.30;;;;;;6247452;23;20004;-92
2021/05/11 03:27:32;;;;;;;4.18;2.50;;;12.40;49.30;;;;;;6247703;22;20028;-91
2021/05/11 03:29:58;;;;;;;2.92;2.40;;;12.40;49.30;;;;;;6249163;22;20308;-91
2021/05/11 03:32:24;;;;;;;4.75;2.78;;;12.50;49.30;;;;;;6248085;22;20431;-92
2021/05/11 03:34:50;;;;;;;2.92;2.58;;;12.50;49.20;;;;;;6248178;22;20000;-91
2021/05/11 03:37:15;;;;;;;4.82;3.05;;;12.60;49.30;;;;;;6258344;22;20008;-92
2021/05/11 03:39:42;;;;;;;4.15;2.95;;;12.60;49.10;;;;;;6269750;22;20000;-92
2021/05/11 03:42:16;;;;;;;3.15;2.58;;;12.70;49.10;;;;;;6268703;22;20054;-93
2021/05/11 03:44:45;;;;;;;6.90;2.92;;;12.70;49.00;;;;;;6273787;22;20012;-91
2021/05/11 03:47:12;;;;;;;4.10;2.78;;;12.80;48.90;;;;;;6265620;22;20004;-91
2021/05/11 03:49:38;;;;;;;2.80;2.38;;;12.80;49.00;;;;;;6251502;23;20005;-92
2021/05/11 03:52:04;;;;;;;5.25;2.60;;;12.90;49.00;;;;;;6251452;22;20075;-92
2021/05/11 03:54:30;;;;;;;3.47;2.88;;;12.90;48.90;;;;;;6252481;23;20004;-92
2021/05/11 03:56:55;;;;;;;5.00;3.08;;;12.90;49.00;;;;;;6250085;22;20012;-91
2021/05/11 03:59:21;;;;;;;3.03;2.50;;;13.00;48.90;;;;;;6248798;22;20435;-92
2021/05/11 04:01:47;;;;;;;3.90;2.75;;;13.00;48.90;;;;;;6247948;22;20004;-91
2021/05/11 04:04:13;;;;;;;3.30;2.40;;;13.00;48.80;;;;;;6247037;22;20023;-92
2021/05/11 04:06:40;;;;;;;4.03;2.40;;;13.10;48.70;;;;;;6247242;22;20000;-91
2021/05/11 04:09:16;;;;;;;3.60;2.50;;;13.00;48.40;;;;;;6247293;22;20088;-91
2021/05/11 04:16:54;;;;;;;;;;;13.10;48.20;;;;;;6248902;23;20058;-92
2021/05/11 04:19:20;;;;;;;4.78;2.60;;;13.20;48.40;;;;;;6248286;22;19900;-91
2021/05/11 04:21:46;;;;;;;3.35;2.70;;;13.20;48.20;;;;;;6248136;22;19996;-91
2021/05/11 04:24:11;;;;;;;4.78;2.70;;;13.20;48.30;;;;;;6249608;23;20024;-91
2021/05/11 04:26:37;;;;;;;3.97;2.50;;;13.20;48.40;;;;;;6247499;22;20018;-93
2021/05/11 04:29:03;;;;;;;2.72;2.53;;;13.30;48.60;;;;;;6247256;22;20008;-91
2021/05/11 04:31:30;;;;;;;3.65;2.78;;;13.40;48.50;;;;;;6247627;22;20027;-91
2021/05/11 04:33:56;;;;;;;2.75;2.55;;;13.30;48.40;;;;;;6251128;22;20004;-90
2021/05/11 04:36:23;;;;;;;8.60;3.30;;;13.30;48.50;;;;;;6250200;22;20035;-91
2021/05/11 04:38:49;;;;;;;4.20;2.90;;;13.30;48.50;;;;;;6248754;22;20019;-91
2021/05/11 04:41:14;;;;;;;2.95;2.50;;;13.40;48.50;;;;;;6249314;22;20300;-93
2021/05/11 04:43:41;;;;;;;3.58;2.78;;;13.40;48.50;;;;;;6248632;22;20008;-91
2021/05/11 04:46:22;;;;;;;4.03;2.60;;;13.40;48.30;;;;;;6247848;22;20012;-92
2021/05/11 04:48:52;;;;;;;2.83;2.42;;;13.40;48.20;;;;;;6248896;23;20007;-91
2021/05/11 04:51:19;;;;;;;7.53;2.75;;;13.40;48.20;;;;;;6251377;23;20008;-91
2021/05/11 04:53:46;;;;;;;4.55;2.53;;;13.50;48.20;;;;;;6254360;22;20438;-90
2021/05/11 04:56:12;;;;;;;3.70;2.78;;;13.50;48.20;;;;;;6253088;22;20111;-90
2021/05/11 04:58:39;;;;;;;4.07;2.80;;;13.50;48.10;;;;;;6252994;22;20008;-91
2021/05/11 05:01:05;;;;;;;4.57;2.95;;;13.50;48.00;;;;;;6250222;22;20011;-92
2021/05/11 05:03:35;;;;;;;4.20;2.70;;;13.60;48.30;;;;;;6247453;22;20097;-90
2021/05/11 05:06:01;;;;;;;3.70;2.42;;;13.60;48.40;;;;;;6248272;22;20004;-92
2021/05/11 05:08:26;;;;;;;3.28;2.60;;;13.60;48.50;;;;;;6249806;22;20479;-92
2021/05/11 05:10:52;;;;;;;3.10;2.78;;;13.70;48.80;;;;;;6247393;22;20012;-90
2021/05/11 05:13:22;;;;;;;2.95;2.50;;;13.70;49.20;;;;;;6249202;22;20007;-91
2021/05/11 05:15:57;;;;;;;3.72;2.92;;;13.80;49.30;;;;;;6247311;22;19996;-91
2021/05/11 05:18:27;;;;;;;5.63;3.00;;;13.90;50.40;;;;;;6247669;23;20040;-91
2021/05/11 05:20:53;;;;;;;3.20;2.53;;;13.90;50.00;;;;;;6248451;22;20279;-92
2021/05/11 05:23:22;;;;;;;2.78;2.42;;;14.00;50.00;;;;;;6246380;22;20364;-92
2021/05/11 05:25:57;;;;;;;4.70;2.35;;;14.00;49.90;;;;;;6248163;23;20315;-91
2021/05/11 05:28:23;;;;;;;3.00;2.53;;;14.10;50.00;;;;;;6250570;23;20004;-91
2021/05/11 05:30:48;;;;;;;2.63;2.40;;;14.20;49.80;;;;;;6253387;23;20004;-92
2021/05/11 05:33:14;;;;;;;2.63;2.35;;;14.30;50.00;;;;;;6249674;22;20273;-91
2021/05/11 05:35:40;;;;;;;4.40;2.55;;;14.40;50.20;;;;;;6249505;23;20324;-91
2021/05/11 05:38:05;;;;;;;2.55;2.30;;;14.40;50.10;;;;;;6247759;22;20015;-91
2021/05/11 05:40:34;;;;;;;3.80;2.40;;;14.50;50.10;;;;;;6247628;23;20004;-90
2021/05/11 05:43:00;;;;;;;3.80;2.63;;;14.50;50.00;;;;;;6225048;23;20004;-91
2021/05/11 05:45:29;;;;;;;6.47;2.72;;;14.50;49.90;;;;;;6224234;23;20008;-90
2021/05/11 05:47:55;;;;;;;4.40;2.60;;;14.70;49.80;;;;;;6248546;22;20005;-89
2021/05/11 05:50:24;;;;;;;6.43;2.88;;;14.70;49.80;;;;;;6246549;22;20012;-91
2021/05/11 05:53:04;;;;;;;3.95;2.45;;;14.70;49.80;;;;;;6253566;22;20008;-91
2021/05/11 05:55:31;;;;;;;4.68;2.95;;;14.70;49.70;;;;;;6265631;22;20004;-91
2021/05/11 05:57:57;;;;;;;3.20;2.45;;;14.70;49.70;;;;;;6267635;22;20008;-91
2021/05/11 06:00:25;;;;;;;4.90;2.67;;;14.80;49.80;;;;;;6268572;23;20003;-91
2021/05/11 06:02:52;;;;;;;2.65;2.40;;;14.80;49.70;;;;;;6268452;22;20007;-90
2021/05/11 06:05:21;;;;;;;4.75;2.40;;;14.90;49.80;;;;;;6240810;23;20020;-91
2021/05/11 06:07:48;;;;;;;4.43;2.25;;;15.00;49.80;;;;;;6230822;23;20020;-90
2021/05/11 06:10:13;;;;;;;2.60;2.40;;;15.10;49.80;;;;;;6257900;22;20012;-91
2021/05/11 06:12:51;;;;;;;2.33;2.05;;;15.20;49.80;;;;;;6255355;23;20083;-92
2021/05/11 06:18:40;;;;;;;2.97;2.25;;;15.40;49.50;;;;;;6253003;23;20008;-90
2021/05/11 06:21:06;;;;;;;3.20;2.40;;;15.50;49.20;;;;;;6247375;22;20416;-91
2021/05/11 06:23:33;;;;;;;3.50;2.67;;;15.60;49.00;;;;;;6246615;22;20090;-92
2021/05/11 06:26:00;;;;;;;3.58;3.05;;;15.70;48.90;;;;;;6247582;23;20008;-91
2021/05/11 06:28:36;;;;;;;3.08;2.55;;;15.70;48.70;;;;;;6247820;23;19996;-89
2021/05/11 06:31:02;;;;;;;3.20;2.42;;;15.80;48.70;;;;;;6246958;22;20005;-92
2021/05/11 06:33:28;;;;;;;2.65;2.40;;;15.80;48.50;;;;;;6247435;22;20008;-91
2021/05/11 06:35:54;;;;;;;4.07;2.42;;;16.00;48.50;;;;;;6246587;23;20004;-90
2021/05/11 06:38:20;;;;;;;2.80;2.50;;;16.20;48.30;;;;;;6247155;22;20408;-91
2021/05/11 06:40:46;;;;;;;4.93;2.55;;;16.30;47.50;;;;;;6246698;22;20092;-91
2021/05/11 06:43:17;;;;;;;3.95;2.60;;;16.40;47.20;;;;;;6220838;23;20001;-90
2021/05/11 06:48:35;;;;;;;5.05;2.88;;;16.20;47.10;;;;;;6247186;23;20019;-92
2021/05/11 06:53:44;;;;;;;4.22;2.60;;;16.00;47.90;;;;;;6250554;22;20011;-90
2021/05/11 06:56:14;;;;;;;3.03;2.63;;;15.90;48.30;;;;;;6248861;23;20004;-90
2021/05/11 06:58:40;;;;;;;3.70;2.63;;;15.80;48.90;;;;;;6249799;23;20052;-91
2021/05/11 07:01:09;;;;;;;4.93;2.20;;;15.80;49.30;;;;;;6250326;22;20341;-90
2021/05/11 07:03:38;;;;;;;2.28;2.08;;;15.70;49.60;;;;;;6225641;23;20056;-90
2021/05/11 07:06:06;;;;;;;3.28;2.50;;;15.60;49.70;;;;;;6223610;23;20087;-92
2021/05/11 07:09:00;;;;;;;3.17;2.50;;;15.60;50.30;;;;;;6250894;22;20001;-92
2021/05/11 07:13:08;;;;;;;5.23;2.77;;;15.60;50.50;;;;;;6229502;23;20059;-90
2021/05/11 07:14:16;;;;;;;2.30;2.08;;;15.60;50.70;;;;;;6250756;22;20255;-90
2021/05/11 07:16:46;;;;;;;2.38;1.60;;;15.60;50.80;;;;;;6250225;22;20038;-91
2021/05/11 07:19:22;;;;;;;3.80;2.75;;;15.80;50.70;;;;;;6250878;22;20023;-90
2021/05/11 07:21:48;;;;;;;2.47;2.20;;;16.00;50.70;;;;;;6253859;23;20479;-92
2021/05/11 07:24:15;;;;;;;2.30;1.92;;;16.30;50.50;;;;;;6252421;22;20020;-90
2021/05/11 07:32:05;;;;;;;2.08;1.88;;;17.10;50.20;;;;;;6263630;22;20011;-90
2021/05/11 07:34:32;;;;;;;2.40;2.20;;;17.40;50.40;;;;;;6250002;22;20015;-89
2021/05/11 07:37:00;;;;;;;3.45;1.95;;;17.60;50.30;;;;;;6249230;22;20087;-91
2021/05/11 07:39:28;;;;;;;3.00;2.40;;;17.80;50.20;;;;;;6247501;22;20000;-91
2021/05/11 07:41:54;;;;;;;3.95;1.98;;;18.00;50.20;;;;;;6247137;22;20038;-91
2021/05/11 07:44:20;;;;;;;2.33;1.85;;;18.10;50.60;;;;;;6248325;22;20005;-91
2021/05/11 07:47:00;;;;;;;6.65;2.13;;;18.30;49.90;;;;;;6246128;22;20008;-91
2021/05/11 08:03:59;;;;;;;4.68;2.00;;;18.90;49.00;;;;;;6217028;23;20019;-90
2021/05/11 08:15:21;;;;;;;2.05;1.85;;;19.60;48.10;;;;;;6221575;23;20016;-92
2021/05/11 08:28:21;;;;;;;2.72;1.90;;;20.50;47.80;;;;;;6269676;23;20014;-92
2021/05/11 08:30:48;;;;;;;2.88;1.60;;;20.70;47.60;;;;;;6244365;23;20071;-91
2021/05/11 08:33:16;;;;;;;5.85;1.90;;;20.80;47.10;;;;;;6263837;22;20008;-91
2021/05/11 08:35:48;;;;;;;2.30;2.10;;;20.90;46.50;;;;;;6250257;23;20027;-91
2021/05/11 08:38:13;;;;;;;3.88;2.08;;;21.00;45.80;;;;;;6250885;23;20525;-91
2021/05/11 08:40:45;;;;;;;3.80;1.95;;;21.00;45.40;;;;;;6252710;22;19996;-90
2021/05/11 08:43:29;;;;;;;3.70;2.10;;;21.10;45.50;;;;;;6260169;23;20028;-90
2021/05/11 08:45:57;;;;;;;3.20;1.80;;;21.10;45.20;;;;;;6254194;23;20016;-90
2021/05/11 08:48:26;;;;;;;2.25;1.58;;;21.10;45.30;;;;;;6254464;22;20031;-89
2021/05/11 09:05:33;;;;;;;4.13;2.00;;;21.60;44.00;;;;;;6248215;22;20094;-91
2021/05/11 09:08:10;;;;;;;2.47;2.20;;;21.60;43.80;;;;;;6226988;23;20118;-90
2021/05/11 09:27:35;;;;;;;5.35;2.25;;;21.90;44.00;;;;;;6255749;22;20111;-91
2021/05/11 09:33:16;;;;;;;2.72;1.92;;;21.80;44.20;;;;;;6247279;22;20004;-90
2021/05/11 10:42:47;;;;;;;1.90;1.48;;;22.70;41.30;;;;;;6266465;22;20008;-93
2021/05/11 10:51:33;;;;;;;2.75;2.00;;;23.00;41.30;;;;;;6283509;22;20011;-92
2021/05/11 11:01:43;;;;;;;7.45;2.25;;;23.20;41.40;;;;;;6272838;22;20327;-94
2021/05/11 11:05:04;;;;;;;;;;;;;;;;;;;;;
2021/05/11 11:08:18;;;;;;;2.42;1.98;;;23.50;39.80;;;;;;6203706;22;20077;-91
2021/05/11 11:10:44;;;;;;;5.55;2.15;;;23.60;40.10;;;;;;6287721;22;20194;-92
2021/05/11 11:13:22;;;;;;;6.95;2.75;;;23.70;40.60;;;;;;6288771;22;20034;-92
2021/05/11 11:15:51;;;;;;;4.93;2.40;;;23.80;40.20;;;;;;6287073;22;20026;-93
2021/05/11 11:18:27;;;;;;;2.42;2.10;;;23.90;40.30;;;;;;6286033;22;20034;-93
2021/05/11 11:24:14;;;;;;;3.70;2.22;;;24.10;39.50;;;;;;6291235;22;20023;-92
2021/05/11 11:26:46;;;;;;;3.13;2.15;;;24.20;39.60;;;;;;6285700;22;20023;-92
2021/05/11 11:29:30;;;;;;;8.00;2.10;;;24.20;39.80;;;;;;6291308;22;20003;-93
2021/05/11 11:32:05;;;;;;;2.90;2.05;;;24.20;39.90;;;;;;6228371;23;20011;-93
2021/05/11 11:34:40;;;;;;;2.17;1.98;;;24.20;40.20;;;;;;6179817;23;20019;-92
2021/05/11 11:37:15;;;;;;;7.57;2.42;;;24.10;40.30;;;;;;6200764;23;20364;-91
2021/05/11 11:40:12;;;;;;;4.82;2.22;;;24.10;40.40;;;;;;6195019;23;20467;-91
2021/05/11 11:42:48;;;;;;;4.88;2.80;;;24.00;39.20;;;;;;6220449;23;20008;-91
2021/05/11 11:49:18;;;;;;;;;;;;;;;;;;;;;
2021/05/11 12:08:51;;;;;;;5.53;2.25;;;24.90;40.30;;;;;;6158823;23;20040;-89
2021/05/11 12:11:27;;;;;;;2.97;1.73;;;25.00;39.60;;;;;;6157977;23;20073;-91
2021/05/11 12:13:58;;;;;;;3.38;2.20;;;25.20;39.50;;;;;;6163015;23;20080;-91
2021/05/11 12:16:45;;;;;;;3.65;2.47;;;25.40;39.80;;;;;;6161266;23;20029;-91
2021/05/11 12:22:30;;;;;;;5.97;2.78;;;25.70;39.30;;;;;;6218093;23;20074;-91
2021/05/11 12:31:54;;;;;;;4.50;2.30;;;25.90;38.00;;;;;;6101065;23;20035;-91
2021/05/11 12:34:27;;;;;;;4.95;2.50;;;26.50;38.80;;;;;;6081913;23;20011;-92
2021/05/11 12:36:58;;;;;;;;;;;26.90;38.30;;;;;;6147342;23;20041;-91
2021/05/11 12:40:08;;;;;;;;;;;;;;;;;;;;;
2021/05/11 12:49:38;;;;;;;3.30;2.33;;;27.10;36.40;;;;;;6063630;23;20003;-92
2021/05/11 12:52:32;;;;;;;6.60;2.80;;;26.80;36.90;;;;;;6122095;23;20004;-89
2021/05/11 12:55:13;;;;;;;3.53;2.60;;;26.70;37.30;;;;;;6267765;22;19999;-90
2021/05/11 12:57:54;;;;;;;2.53;2.20;;;26.40;37.70;;;;;;6291633;22;20030;-92
2021/05/11 13:00:43;;;;;;;3.20;2.42;;;26.20;38.30;;;;;;6259580;23;20012;-91
2021/05/11 13:32:30;;;;;;;;;;;27.20;36.80;;;;;;6085698;23;20085;-91
2021/05/11 13:42:06;;;;;;;5.45;3.60;;;27.10;36.70;;;;;;6147432;23;20008;-89
2021/05/11 14:04:43;;;;;;;;;;;;;;;;;;;;;
2021/05/11 14:07:34;;;;;;;8.52;3.92;;;28.20;35.10;;;;;;5042905;28;20049;-91
2021/05/11 14:10:18;;;;;;;4.45;3.53;;;28.50;35.60;;;;;;5066819;28;20048;-92
2021/05/11 14:13:36;;;;;;;5.70;4.35;;;28.60;35.30;;;;;;5049253;28;20033;-92
2021/05/11 14:16:25;;;;;;;4.50;3.70;;;28.40;34.60;;;;;;5012998;28;20039;-92
2021/05/11 14:19:18;;;;;;;4.88;3.80;;;28.20;35.30;;;;;;5059098;28;20042;-93
2021/05/11 14:22:03;;;;;;;4.68;3.70;;;28.30;35.80;;;;;;5054193;28;20041;-93
2021/05/11 14:24:31;;;;;;;5.03;3.55;;;28.70;35.70;;;;;;5076959;28;20446;-92
2021/05/11 14:27:03;;;;;;;7.53;3.50;;;28.80;35.20;;;;;;5092292;28;20043;-91
2021/05/11 14:30:03;;;;;;;4.57;2.88;;;28.80;36.80;;;;;;5100245;28;20129;-91
2021/05/11 14:32:38;;;;;;;6.15;3.45;;;28.60;37.80;;;;;;5115406;28;20047;-92
2021/05/11 14:39:12;;;;;;;6.28;3.40;;;26.60;40.50;;;;;;4897719;29;20037;-93
2021/05/11 14:58:49;;;;;;;8.80;2.65;;;23.60;48.40;;;;;;4979117;28;20085;-91
2021/05/11 15:01:17;;;;;;;3.90;3.50;;;23.30;48.00;;;;;;4986877;28;20048;-90
2021/05/11 15:03:46;;;;;;;3.67;3.35;;;23.00;48.90;;;;;;4998036;28;20441;-91
2021/05/11 15:06:19;;;;;;;3.15;2.85;;;22.80;49.40;;;;;;4983562;28;20038;-93
2021/05/11 15:12:10;;;;;;;3.50;2.67;;;22.30;50.50;;;;;;5005490;28;20025;-91
2021/05/11 15:14:39;;;;;;;6.60;3.72;;;22.10;50.50;;;;;;5025235;28;20096;-90
2021/05/11 15:20:43;;;;;;;2.80;2.53;;;21.50;54.00;;;;;;5068658;28;20055;-92
2021/05/11 15:23:12;;;;;;;2.88;2.58;;;21.20;52.00;;;;;;5055693;28;20060;-92
2021/05/11 15:25:40;;;;;;;3.38;2.83;;;21.10;51.80;;;;;;5035983;28;20037;-91
2021/05/11 15:28:11;;;;;;;4.38;3.47;;;20.90;52.10;;;;;;5065987;28;20028;-93
2021/05/11 15:30:47;;;;;;;4.05;3.25;;;20.70;53.40;;;;;;5045728;28;20041;-91
2021/05/11 15:33:17;;;;;;;3.63;3.33;;;20.60;53.40;;;;;;5046692;28;20048;-93
2021/05/11 15:35:53;;;;;;;3.35;2.95;;;20.60;53.50;;;;;;5044461;28;20033;-92
2021/05/11 15:38:30;;;;;;;4.20;2.90;;;20.50;53.50;;;;;;5041382;28;20527;-92
2021/05/11 15:41:03;;;;;;;2.38;2.20;;;20.40;53.60;;;;;;5056696;28;20041;-92
2021/05/11 15:43:37;;;;;;;3.15;2.85;;;20.20;53.40;;;;;;5057667;28;20028;-92
2021/05/11 15:46:09;;;;;;;3.42;3.13;;;20.20;53.80;;;;;;5046313;28;20073;-93
2021/05/11 15:48:38;;;;;;;3.28;2.95;;;20.00;54.00;;;;;;5051774;28;20033;-93
2021/05/11 15:51:04;;;;;;;5.32;2.97;;;19.90;54.00;;;;;;5065367;28;20040;-91
2021/05/11 15:56:49;;;;;;;3.30;2.67;;;19.70;54.30;;;;;;5017635;28;20599;-91
2021/05/11 16:03:18;;;;;;;2.80;2.45;;;19.50;54.90;;;;;;5016625;28;20076;-91
2021/05/11 16:06:14;;;;;;;3.13;2.92;;;19.40;54.60;;;;;;5063558;28;20437;-92
2021/05/11 16:08:43;;;;;;;4.05;3.35;;;19.30;55.00;;;;;;5077881;28;20040;-91
2021/05/11 16:11:12;;;;;;;4.20;3.20;;;19.20;55.10;;;;;;5084089;28;20061;-94
2021/05/11 16:13:44;;;;;;;4.15;3.60;;;19.10;55.10;;;;;;5085328;28;20039;-91
2021/05/11 16:16:11;;;;;;;4.63;3.38;;;19.10;55.60;;;;;;5100216;28;20527;-91
2021/05/11 16:18:41;;;;;;;4.20;3.50;;;19.00;55.50;;;;;;5079093;28;20028;-91
2021/05/11 16:21:16;;;;;;;4.22;3.00;;;18.90;56.20;;;;;;5081455;28;20032;-92
2021/05/11 16:23:47;;;;;;;4.13;3.72;;;18.90;56.30;;;;;;5080386;28;20028;-92
2021/05/11 16:26:17;;;;;;;3.90;3.40;;;18.80;56.60;;;;;;5083942;28;20032;-92
2021/05/11 16:28:49;;;;;;;4.05;3.60;;;18.70;57.10;;;;;;5081568;28;20101;-93
2021/05/11 16:31:19;;;;;;;4.45;4.05;;;18.70;57.10;;;;;;5082034;28;20134;-92
2021/05/11 16:33:46;;;;;;;6.95;3.70;;;18.60;57.50;;;;;;5099366;28;20039;-92
2021/05/11 16:40:12;;;;;;;5.60;3.30;;;18.50;58.20;;;;;;5050530;28;20227;-91
2021/05/11 16:43:24;;;;;;;4.60;3.75;;;18.40;59.10;;;;;;4988734;28;20148;-90
2021/05/11 16:46:17;;;;;;;3.00;2.80;;;18.30;58.50;;;;;;5002233;28;20169;-92
2021/05/11 16:49:08;;;;;;;3.65;3.35;;;18.20;58.50;;;;;;4994866;28;20037;-93
2021/05/11 16:52:06;;;;;;;5.72;3.22;;;18.20;59.00;;;;;;5012329;28;20084;-93
2021/05/11 16:54:37;;;;;;;6.18;3.83;;;18.10;58.50;;;;;;4994479;28;20038;-93
2021/05/11 16:57:17;;;;;;;6.18;3.97;;;18.10;59.30;;;;;;4999792;28;20102;-94
2021/05/11 16:59:47;;;;;;;4.63;3.70;;;18.00;59.30;;;;;;4992934;28;20052;-93
2021/05/11 17:02:17;;;;;;;4.70;4.20;;;18.00;59.50;;;;;;4965365;28;20046;-93
2021/05/11 17:04:51;;;;;;;3.70;2.80;;;18.00;59.90;;;;;;4982963;28;20042;-92
2021/05/11 17:07:17;;;;;;;;;;;17.90;59.70;;;;;;4980739;28;20054;-93
2021/05/11 17:09:45;;;;;;;5.28;4.63;;;17.80;61.50;;;;;;5005021;28;19912;-91
2021/05/11 17:12:17;;;;;;;4.35;3.95;;;17.80;60.50;;;;;;5047465;28;20164;-91
2021/05/11 17:14:42;;;;;;;5.13;4.07;;;17.80;60.60;;;;;;5032939;28;20153;-92
2021/05/11 17:17:08;;;;;;;4.75;3.97;;;17.70;60.80;;;;;;5049128;28;20025;-90
2021/05/11 17:19:37;;;;;;;3.67;3.30;;;17.70;61.10;;;;;;5051601;28;20067;-90
2021/05/11 17:22:03;;;;;;;4.10;3.60;;;17.60;61.20;;;;;;5066888;28;20491;-92
2021/05/11 17:24:31;;;;;;;3.58;3.28;;;17.60;61.40;;;;;;5067207;28;20164;-92
2021/05/11 17:27:06;;;;;;;6.15;3.42;;;17.50;61.70;;;;;;5063464;28;20028;-92
2021/05/11 17:29:34;;;;;;;4.10;3.42;;;17.50;61.90;;;;;;5062503;28;20028;-92
2021/05/11 17:32:05;;;;;;;5.63;3.72;;;17.40;62.10;;;;;;5062926;28;20025;-92
2021/05/11 17:34:31;;;;;;;4.15;3.75;;;17.40;62.70;;;;;;5062330;28;20041;-92
2021/05/11 17:36:57;;;;;;;4.35;3.83;;;17.30;62.60;;;;;;5063801;28;20033;-92
2021/05/11 17:39:23;;;;;;;6.35;3.60;;;17.30;63.00;;;;;;5066435;28;20047;-92
2021/05/11 17:41:49;;;;;;;4.07;3.13;;;17.20;63.40;;;;;;5064574;28;20040;-92
2021/05/11 17:44:15;;;;;;;3.67;3.38;;;17.10;63.30;;;;;;5063459;28;20025;-91
2021/05/11 17:46:41;;;;;;;4.25;3.70;;;17.00;63.50;;;;;;5046440;28;20439;-91
2021/05/11 17:49:07;;;;;;;4.60;3.33;;;17.00;63.70;;;;;;5065748;28;20040;-92
2021/05/11 17:51:33;;;;;;;4.15;3.45;;;17.00;63.80;;;;;;5066520;28;20028;-91
2021/05/11 17:53:58;;;;;;;3.72;3.40;;;17.00;63.80;;;;;;5062836;28;20069;-91
2021/05/11 17:56:29;;;;;;;5.72;3.60;;;17.00;64.10;;;;;;5063023;28;20025;-91
2021/05/11 17:58:56;;;;;;;3.47;3.17;;;17.00;64.00;;;;;;5063654;28;20040;-92
2021/05/11 18:01:22;;;;;;;3.97;3.58;;;17.00;63.90;;;;;;5063747;28;20029;-91
2021/05/11 18:03:49;;;;;;;5.32;3.70;;;17.00;63.90;;;;;;5063125;28;20041;-92
2021/05/11 18:06:15;;;;;;;4.00;3.63;;;17.00;64.50;;;;;;5062445;28;20481;-92
2021/05/11 18:08:41;;;;;;;3.83;3.50;;;17.00;64.80;;;;;;5062393;28;20034;-91
2021/05/11 18:11:08;;;;;;;4.72;4.10;;;16.90;64.60;;;;;;5046345;28;20383;-91
2021/05/11 18:13:33;;;;;;;4.55;4.15;;;16.90;64.80;;;;;;5053406;28;20041;-92
2021/05/11 18:16:00;;;;;;;7.75;4.30;;;16.90;64.70;;;;;;5067830;28;20147;-92
2021/05/11 18:18:26;;;;;;;5.43;3.88;;;16.90;65.00;;;;;;5067722;28;20104;-91
2021/05/11 18:20:52;;;;;;;4.65;3.47;;;16.90;65.10;;;;;;5070654;28;20010;-93
2021/05/11 18:23:18;;;;;;;5.20;3.88;;;16.90;64.70;;;;;;5050380;28;20021;-92
2021/05/11 18:25:44;;;;;;;4.40;3.53;;;16.90;64.50;;;;;;5048090;28;20039;-91
2021/05/11 18:28:10;;;;;;;4.15;3.17;;;16.80;64.40;;;;;;5047733;28;20036;-92
2021/05/11 18:30:35;;;;;;;5.38;3.65;;;16.80;64.30;;;;;;5043629;28;20140;-91
2021/05/11 18:33:01;;;;;;;3.67;3.25;;;16.80;64.40;;;;;;5046403;28;20195;-92
2021/05/11 18:35:30;;;;;;;3.60;3.30;;;16.80;64.10;;;;;;5045970;28;20130;-92
2021/05/11 18:40:22;;;;;;;3.70;3.40;;;16.80;63.80;;;;;;5066692;28;20045;-91
2021/05/11 18:42:48;;;;;;;4.82;3.65;;;16.80;63.70;;;;;;5046370;28;20057;-91
2021/05/11 18:45:14;;;;;;;4.05;3.30;;;16.70;63.50;;;;;;5046020;28;20059;-92
2021/05/11 18:47:42;;;;;;;3.97;3.55;;;16.70;63.50;;;;;;5046161;28;20465;-91
2021/05/11 18:50:10;;;;;;;4.63;3.47;;;16.60;63.80;;;;;;5044471;28;20033;-91
2021/05/11 18:52:37;;;;;;;4.60;3.90;;;16.50;64.10;;;;;;5046671;28;20036;-92
2021/05/11 18:55:03;;;;;;;5.07;3.63;;;16.30;64.30;;;;;;5065957;28;20063;-91
2021/05/11 18:57:29;;;;;;;5.07;4.22;;;16.20;65.20;;;;;;5049022;28;20048;-92
2021/05/11 18:59:54;;;;;;;6.10;3.75;;;16.10;65.70;;;;;;5047707;28;20055;-92
2021/05/11 19:02:20;;;;;;;6.15;4.00;;;16.00;66.10;;;;;;5045506;28;20049;-91
2021/05/11 19:04:46;;;;;;;4.25;3.85;;;16.00;66.60;;;;;;5044521;28;20029;-92
2021/05/11 19:07:15;;;;;;;6.38;4.50;;;15.90;66.80;;;;;;5046492;28;20041;-91
2021/05/11 19:09:41;;;;;;;6.55;4.20;;;15.80;67.10;;;;;;5061388;28;20099;-91
2021/05/11 19:12:09;;;;;;;5.15;3.63;;;15.70;67.30;;;;;;5044611;28;20048;-92